Time;durP1;ratioP1;P1;durP2;ratioP2;P2;SDS_P1;SDS_P2;PMS_P1;PMS_P2;Temp;Humidity;BMP_temperature;BMP_pressure;BME280_temperature;BME280_humidity;BME280_pressure;Samples;Min_cycle;Max_cycle;Signal;HPM_P1;HPM_P2
2022/11/05 00:10:24;;;;;;;39.90;18.52;;;16.70;70.20;;;;;;5095942;28;20085;-87
2022/11/05 00:18:20;;;;;;;11.80;7.50;;;16.40;71.30;;;;;;5097349;28;20036;-83
2022/11/05 00:20:45;;;;;;;8.82;5.30;;;16.30;71.00;;;;;;5081647;28;20028;-80
2022/11/05 00:25:57;;;;;;;7.63;5.00;;;16.40;70.60;;;;;;5113249;28;20514;-81
2022/11/05 00:28:23;;;;;;;7.57;4.60;;;16.50;70.60;;;;;;5094211;28;20024;-90
2022/11/05 00:30:48;;;;;;;6.75;4.47;;;16.50;70.30;;;;;;5095113;28;20658;-81
2022/11/05 00:33:17;;;;;;;6.47;4.43;;;16.60;69.20;;;;;;5092272;28;20038;-84
2022/11/05 00:35:45;;;;;;;6.72;4.28;;;16.80;68.70;;;;;;5095714;28;20031;-85
2022/11/05 00:38:11;;;;;;;7.10;4.78;;;16.80;67.90;;;;;;5085864;28;20032;-81
2022/11/05 00:40:37;;;;;;;7.22;4.70;;;16.50;68.20;;;;;;5080362;28;20017;-87
2022/11/05 00:45:46;;;;;;;7.05;4.75;;;16.30;69.20;;;;;;5115107;28;20035;-88
2022/11/05 00:50:58;;;;;;;7.35;5.07;;;16.50;68.80;;;;;;5113102;28;20039;-82
2022/11/05 00:53:24;;;;;;;7.70;5.00;;;16.70;68.20;;;;;;5077423;28;20020;-84
2022/11/05 00:55:49;;;;;;;8.27;4.90;;;16.80;67.90;;;;;;5077035;28;20026;-85
2022/11/05 00:58:18;;;;;;;6.32;4.88;;;16.80;67.20;;;;;;5092354;28;20107;-81
2022/11/05 01:00:48;;;;;;;7.10;4.90;;;16.70;67.80;;;;;;5110377;28;20051;-93
2022/11/05 01:03:15;;;;;;;7.30;4.95;;;16.50;67.80;;;;;;5089283;28;20487;-86
2022/11/05 01:05:43;;;;;;;6.82;4.97;;;16.40;67.80;;;;;;5085006;28;20040;-83
2022/11/05 01:08:10;;;;;;;6.22;4.57;;;16.60;67.90;;;;;;5081555;28;20028;-83
2022/11/05 01:10:50;;;;;;;7.68;5.22;;;16.80;66.70;;;;;;5083722;28;20082;-80
2022/11/05 01:13:19;;;;;;;;;;;16.70;67.30;;;;;;5076710;28;20032;-81
2022/11/05 01:15:46;;;;;;;6.43;4.78;;;16.80;67.00;;;;;;5075674;28;19977;-81
2022/11/05 01:18:12;;;;;;;6.65;4.60;;;17.00;66.60;;;;;;5077076;28;20412;-82
2022/11/05 01:20:38;;;;;;;7.13;4.95;;;17.10;66.30;;;;;;5092654;28;20038;-82
2022/11/05 01:23:04;;;;;;;9.70;5.10;;;17.20;65.80;;;;;;5082481;28;20024;-82
2022/11/05 01:25:29;;;;;;;8.07;5.03;;;17.10;65.90;;;;;;5079527;28;20039;-82
2022/11/05 01:27:55;;;;;;;6.57;4.70;;;17.10;65.80;;;;;;5085620;28;20031;-82
2022/11/05 01:30:21;;;;;;;6.78;4.90;;;17.10;66.30;;;;;;5083068;28;20047;-80
2022/11/05 01:32:47;;;;;;;7.03;5.25;;;17.10;65.60;;;;;;5103591;28;20465;-81
2022/11/05 01:35:14;;;;;;;7.35;5.25;;;17.10;65.90;;;;;;5076781;28;20539;-80
2022/11/05 01:37:40;;;;;;;6.55;5.10;;;17.10;65.70;;;;;;5094349;28;20023;-81
2022/11/05 01:40:10;;;;;;;8.63;5.57;;;16.80;67.30;;;;;;5083909;28;20067;-81
2022/11/05 01:42:36;;;;;;;7.43;5.28;;;16.90;67.50;;;;;;5090797;28;20055;-86
2022/11/05 01:45:20;;;;;;;8.05;5.70;;;17.00;67.00;;;;;;5079546;28;20062;-78
2022/11/05 01:48:04;;;;;;;10.27;6.20;;;17.00;66.30;;;;;;5075492;28;20026;-83
2022/11/05 01:50:42;;;;;;;7.45;5.90;;;17.00;66.50;;;;;;5077101;28;20111;-77
2022/11/05 01:53:20;;;;;;;7.80;5.55;;;16.80;67.40;;;;;;5091134;28;20043;-86
2022/11/05 01:55:57;;;;;;;8.02;5.47;;;16.60;67.00;;;;;;5095576;28;20482;-81
2022/11/05 01:58:27;;;;;;;8.15;6.00;;;16.60;67.50;;;;;;5075766;28;20038;-81
2022/11/05 02:00:55;;;;;;;8.07;5.65;;;16.20;69.20;;;;;;5079066;28;20138;-85
2022/11/05 02:03:21;;;;;;;8.93;6.43;;;16.20;68.90;;;;;;5088175;28;20089;-83
2022/11/05 02:05:50;;;;;;;9.77;6.28;;;16.50;68.40;;;;;;5108732;28;20007;-78
2022/11/05 02:08:33;;;;;;;9.05;6.22;;;16.60;68.00;;;;;;5086227;28;20031;-82
2022/11/05 02:10:59;;;;;;;9.18;5.97;;;16.80;67.10;;;;;;5085538;28;20042;-80
2022/11/05 02:13:24;;;;;;;11.18;6.57;;;16.60;67.20;;;;;;5093686;28;20024;-80
2022/11/05 02:16:08;;;;;;;8.95;6.50;;;16.40;67.90;;;;;;5094122;28;20024;-82
2022/11/05 02:19:03;;;;;;;8.25;6.25;;;15.80;69.60;;;;;;5095210;28;20030;-89
2022/11/05 02:21:41;;;;;;;9.38;5.82;;;15.80;70.20;;;;;;5074910;28;20032;-77
2022/11/05 02:24:31;;;;;;;9.35;6.57;;;15.80;70.40;;;;;;5075085;28;20476;-78
2022/11/05 02:27:17;;;;;;;9.35;6.35;;;15.90;69.70;;;;;;5078738;28;20060;-81
2022/11/05 02:30:00;;;;;;;10.25;6.85;;;16.00;68.90;;;;;;5084638;28;20031;-88
2022/11/05 02:32:35;;;;;;;9.73;6.72;;;16.10;69.30;;;;;;5088957;28;20055;-77
2022/11/05 02:35:15;;;;;;;8.90;6.30;;;16.30;68.20;;;;;;5111329;28;20020;-78
2022/11/05 02:37:50;;;;;;;8.82;6.65;;;16.60;68.20;;;;;;5089828;28;20032;-81
2022/11/05 02:40:18;;;;;;;9.57;6.72;;;16.60;67.50;;;;;;5098451;28;20020;-83
2022/11/05 02:43:08;;;;;;;9.30;6.75;;;16.40;67.60;;;;;;5094600;28;20050;-84
2022/11/05 02:45:54;;;;;;;7.95;5.80;;;16.20;68.70;;;;;;5076023;28;20114;-80
2022/11/05 02:48:45;;;;;;;7.60;5.50;;;15.80;69.20;;;;;;5075986;28;20077;-79
2022/11/05 02:51:13;;;;;;;8.20;5.90;;;15.50;70.70;;;;;;5074434;28;20067;-84
2022/11/05 02:54:14;;;;;;;8.65;6.10;;;15.30;70.80;;;;;;5074529;28;20035;-79
2022/11/05 02:56:45;;;;;;;8.48;6.25;;;15.40;70.90;;;;;;5072237;28;20501;-79
2022/11/05 02:59:11;;;;;;;;;;;15.60;70.30;;;;;;5089174;28;20089;-87
2022/11/05 03:01:38;;;;;;;8.93;6.55;;;15.80;69.30;;;;;;5086248;28;19919;-90
2022/11/05 03:04:07;;;;;;;11.70;7.07;;;16.00;69.60;;;;;;5096642;28;20020;-79
2022/11/05 03:06:50;;;;;;;8.88;6.28;;;16.30;68.20;;;;;;5115227;28;20039;-78
2022/11/05 03:09:44;;;;;;;8.70;6.22;;;16.20;68.40;;;;;;5085345;28;20016;-89
2022/11/05 03:12:34;;;;;;;8.20;6.25;;;16.00;68.10;;;;;;5089134;28;20059;-82
2022/11/05 03:15:12;;;;;;;10.02;6.80;;;15.90;69.30;;;;;;5087104;28;20484;-78
2022/11/05 03:18:08;;;;;;;8.27;6.22;;;16.00;69.10;;;;;;5097221;28;20388;-80
2022/11/05 03:20:42;;;;;;;7.20;5.43;;;15.90;69.50;;;;;;5115358;28;20052;-79
2022/11/05 03:23:30;;;;;;;8.68;5.97;;;15.80;69.00;;;;;;5102968;28;20020;-79
2022/11/05 03:26:23;;;;;;;8.57;6.75;;;16.00;69.00;;;;;;5097757;28;20106;-80
2022/11/05 03:28:59;;;;;;;13.93;6.50;;;16.30;69.10;;;;;;5070751;28;20039;-80
2022/11/05 03:31:25;;;;;;;8.00;6.03;;;16.30;67.90;;;;;;5080727;28;20093;-80
2022/11/05 03:33:53;;;;;;;8.48;6.53;;;16.10;68.20;;;;;;5097997;28;20023;-80
2022/11/05 03:36:25;;;;;;;8.40;6.50;;;16.00;68.50;;;;;;5087023;28;20028;-80
2022/11/05 03:38:54;;;;;;;8.10;6.43;;;15.90;68.80;;;;;;5077756;28;20114;-85
2022/11/05 03:41:21;;;;;;;9.75;7.35;;;16.00;68.80;;;;;;5077420;28;20020;-80
2022/11/05 03:43:53;;;;;;;9.32;6.25;;;16.10;68.10;;;;;;5105606;28;20032;-89
2022/11/05 03:46:49;;;;;;;9.38;7.32;;;16.10;67.70;;;;;;5101982;28;20028;-88
2022/11/05 03:49:23;;;;;;;8.63;6.50;;;16.00;68.40;;;;;;5083370;28;20087;-90
2022/11/05 03:52:17;;;;;;;9.10;7.22;;;15.90;68.60;;;;;;5098465;28;20067;-78
2022/11/05 03:54:43;;;;;;;9.80;7.43;;;15.90;69.00;;;;;;5096449;28;20028;-87
2022/11/05 03:57:11;;;;;;;10.55;7.22;;;15.90;69.10;;;;;;5097884;28;20106;-82
2022/11/05 03:59:41;;;;;;;10.13;7.47;;;15.80;68.30;;;;;;5116003;28;20069;-82
2022/11/05 04:02:10;;;;;;;9.57;7.00;;;15.60;69.20;;;;;;5098498;28;20083;-83
2022/11/05 04:04:35;;;;;;;9.82;7.43;;;15.70;69.60;;;;;;5091314;28;20050;-88
2022/11/05 04:15:13;;;;;;;9.77;7.07;;;15.40;69.90;;;;;;5095771;28;20051;-79
2022/11/05 04:17:39;;;;;;;10.75;8.15;;;15.60;69.90;;;;;;5101572;28;20396;-79
2022/11/05 04:25:42;;;;;;;8.93;7.10;;;15.50;69.90;;;;;;5099098;28;20093;-77
2022/11/05 04:28:08;;;;;;;11.27;7.47;;;15.40;70.00;;;;;;5101016;28;20107;-82
2022/11/05 04:30:34;;;;;;;9.77;7.32;;;15.70;69.90;;;;;;5077170;28;20103;-80
2022/11/05 04:33:09;;;;;;;8.38;6.75;;;15.60;68.90;;;;;;5089395;28;20084;-80
2022/11/05 04:35:38;;;;;;;9.13;7.50;;;15.70;69.10;;;;;;5092043;28;20724;-80
2022/11/05 04:38:09;;;;;;;10.43;8.40;;;15.70;69.40;;;;;;5095320;28;20027;-91
2022/11/05 04:40:34;;;;;;;;;;;15.80;68.50;;;;;;5089284;28;20067;-78
2022/11/05 04:43:00;;;;;;;10.60;8.10;;;15.90;69.00;;;;;;5108003;28;19939;-81
2022/11/05 04:45:28;;;;;;;9.80;7.65;;;15.70;69.00;;;;;;5096498;28;20504;-79
2022/11/05 04:47:54;;;;;;;11.60;7.95;;;15.60;70.00;;;;;;5096325;28;20118;-85
2022/11/05 04:50:20;;;;;;;10.43;7.75;;;15.70;69.00;;;;;;5114114;28;20016;-81
2022/11/05 04:52:46;;;;;;;10.70;7.95;;;15.60;69.70;;;;;;5095659;28;20042;-79
2022/11/05 04:55:11;;;;;;;10.23;7.43;;;15.70;68.80;;;;;;5092208;28;20020;-80
2022/11/05 04:57:37;;;;;;;8.90;7.03;;;15.90;68.40;;;;;;5075471;28;20020;-80
2022/11/05 05:00:05;;;;;;;12.05;7.78;;;15.70;68.30;;;;;;5086088;27;20039;-78
2022/11/05 05:02:31;;;;;;;12.30;8.63;;;15.60;68.80;;;;;;5113930;28;20024;-81
2022/11/05 05:05:03;;;;;;;10.65;8.05;;;15.50;69.20;;;;;;5114282;28;20529;-81
2022/11/05 05:07:29;;;;;;;10.52;8.25;;;15.50;69.90;;;;;;5095328;28;20027;-81
2022/11/05 05:09:55;;;;;;;11.30;8.35;;;15.50;69.40;;;;;;5094496;28;20031;-81
2022/11/05 05:12:21;;;;;;;10.75;8.52;;;15.40;69.40;;;;;;5095064;28;21824;-81
2022/11/05 05:14:48;;;;;;;10.73;8.02;;;15.40;69.40;;;;;;5113781;28;20019;-80
2022/11/05 05:17:14;;;;;;;11.32;8.60;;;15.20;69.70;;;;;;5096137;28;20028;-87
2022/11/05 05:22:24;;;;;;;10.38;8.35;;;15.00;70.40;;;;;;5115037;28;20030;-86
2022/11/05 05:24:49;;;;;;;10.30;7.50;;;14.90;71.10;;;;;;5114667;28;20019;-79
2022/11/05 05:27:15;;;;;;;11.43;8.77;;;15.00;71.00;;;;;;5090576;28;20027;-84
2022/11/05 05:29:41;;;;;;;10.63;8.10;;;15.30;69.90;;;;;;5086640;28;20032;-79
2022/11/05 05:32:08;;;;;;;10.52;8.10;;;15.50;69.30;;;;;;5075040;28;20042;-87
2022/11/05 05:34:33;;;;;;;15.57;8.20;;;15.60;69.10;;;;;;5096112;28;20108;-83
2022/11/05 05:36:59;;;;;;;10.45;7.95;;;15.60;68.70;;;;;;5096446;28;20077;-82
2022/11/05 05:39:26;;;;;;;10.93;8.32;;;15.70;68.90;;;;;;5080143;28;20027;-89
2022/11/05 05:41:51;;;;;;;9.70;7.63;;;15.60;68.80;;;;;;5075416;28;20027;-82
2022/11/05 05:44:17;;;;;;;9.90;7.45;;;15.70;68.20;;;;;;5081253;28;20361;-80
2022/11/05 05:46:43;;;;;;;10.23;7.47;;;15.60;68.90;;;;;;5078803;28;20184;-83
2022/11/05 05:49:10;;;;;;;9.85;7.72;;;15.60;68.60;;;;;;5075508;28;20035;-80
2022/11/05 05:51:35;;;;;;;8.68;6.93;;;15.90;68.20;;;;;;5075353;28;20047;-81
2022/11/05 05:54:01;;;;;;;9.43;7.43;;;15.90;67.60;;;;;;5075645;28;20023;-84
2022/11/05 05:56:27;;;;;;;10.30;7.97;;;15.90;67.80;;;;;;5076680;28;20020;-80
2022/11/05 05:58:53;;;;;;;8.98;7.20;;;15.90;67.70;;;;;;5085754;28;20035;-78
2022/11/05 06:01:19;;;;;;;13.20;7.82;;;15.90;67.50;;;;;;5095107;28;20052;-82
2022/11/05 06:03:46;;;;;;;12.00;7.97;;;16.00;67.50;;;;;;5094849;28;20064;-80
2022/11/05 06:06:13;;;;;;;8.68;7.00;;;15.90;67.80;;;;;;5095767;28;20472;-85
2022/11/05 06:08:40;;;;;;;8.40;6.88;;;15.90;67.80;;;;;;5106285;27;20121;-89
2022/11/05 06:11:09;;;;;;;9.60;6.93;;;16.10;66.90;;;;;;5115641;27;20024;-87
2022/11/05 06:13:36;;;;;;;8.30;5.75;;;16.10;66.60;;;;;;5115809;27;20053;-92
2022/11/05 06:16:07;;;;;;;8.10;6.47;;;16.00;67.10;;;;;;5116511;27;20509;-89
2022/11/05 06:18:33;;;;;;;8.75;6.20;;;16.20;66.80;;;;;;5134677;27;20019;-85
2022/11/05 06:21:11;;;;;;;8.68;6.85;;;16.10;67.10;;;;;;5115921;28;20024;-86
2022/11/05 06:23:38;;;;;;;8.02;6.25;;;15.90;67.00;;;;;;5115971;28;20171;-80
2022/11/05 06:26:07;;;;;;;9.15;6.50;;;15.70;68.20;;;;;;5134947;28;20051;-81
2022/11/05 06:28:33;;;;;;;8.43;6.20;;;15.80;67.10;;;;;;5116070;28;20020;-77
2022/11/05 06:30:59;;;;;;;10.35;6.95;;;15.90;67.70;;;;;;5116825;27;20465;-83
2022/11/05 06:33:25;;;;;;;9.32;6.07;;;16.20;66.70;;;;;;5138260;27;20039;-84
2022/11/05 06:35:52;;;;;;;8.35;6.10;;;16.10;66.80;;;;;;5119877;27;20038;-85
2022/11/05 06:38:20;;;;;;;7.93;6.25;;;16.00;67.00;;;;;;5120251;27;20023;-88
2022/11/05 06:40:46;;;;;;;7.97;6.07;;;15.90;66.90;;;;;;5119867;27;20110;-81
2022/11/05 06:43:12;;;;;;;7.95;6.53;;;16.10;66.30;;;;;;5120194;27;20428;-90
2022/11/05 06:45:37;;;;;;;7.85;5.88;;;16.00;66.90;;;;;;5138517;27;20023;-88
2022/11/05 06:48:03;;;;;;;7.93;5.80;;;15.70;67.20;;;;;;5119655;27;20182;-88
2022/11/05 06:50:29;;;;;;;14.00;7.07;;;15.60;68.20;;;;;;5119983;27;20467;-84
2022/11/05 06:52:57;;;;;;;8.45;6.63;;;15.70;68.40;;;;;;5120717;27;20027;-79
2022/11/05 06:55:23;;;;;;;7.78;5.95;;;15.60;68.40;;;;;;5118773;27;20060;-82
2022/11/05 06:57:49;;;;;;;7.38;6.00;;;15.60;68.30;;;;;;5118941;27;20027;-77
2022/11/05 07:00:16;;;;;;;8.68;6.03;;;15.60;68.50;;;;;;5119082;27;20088;-79
2022/11/05 07:02:41;;;;;;;9.13;6.88;;;15.90;68.60;;;;;;5137389;27;20140;-82
2022/11/05 07:05:10;;;;;;;7.70;5.95;;;16.10;67.30;;;;;;5137380;27;20036;-86
2022/11/05 07:07:40;;;;;;;8.77;6.55;;;16.00;67.90;;;;;;5119580;27;20023;-78
2022/11/05 07:10:09;;;;;;;7.68;6.38;;;15.90;68.20;;;;;;5134229;27;20061;-79
2022/11/05 07:12:35;;;;;;;8.50;5.57;;;16.10;67.50;;;;;;5103748;28;20085;-80
2022/11/05 07:15:01;;;;;;;7.28;6.10;;;16.30;67.90;;;;;;5101183;28;20023;-87
2022/11/05 07:17:26;;;;;;;7.53;5.97;;;16.40;67.30;;;;;;5099689;28;20027;-82
2022/11/05 07:19:52;;;;;;;8.80;6.32;;;16.10;66.90;;;;;;5099183;28;20026;-78
2022/11/05 07:22:18;;;;;;;8.93;6.93;;;16.00;68.20;;;;;;5117238;28;20023;-82
2022/11/05 07:24:46;;;;;;;7.93;6.38;;;16.00;68.70;;;;;;5098581;28;20110;-80
2022/11/05 07:27:12;;;;;;;7.22;5.63;;;16.00;67.70;;;;;;5099480;28;20038;-87
2022/11/05 07:29:38;;;;;;;6.72;5.13;;;15.70;68.80;;;;;;5098764;28;20059;-82
2022/11/05 07:32:04;;;;;;;8.35;6.15;;;15.90;68.50;;;;;;5098964;28;20124;-83
2022/11/05 07:34:29;;;;;;;6.25;5.47;;;16.30;68.60;;;;;;5098893;28;20020;-88
2022/11/05 07:36:55;;;;;;;8.55;6.25;;;16.30;67.00;;;;;;5098994;28;20444;-83
2022/11/05 07:39:21;;;;;;;7.63;5.63;;;16.20;67.90;;;;;;5098256;28;20494;-80
2022/11/05 07:41:46;;;;;;;6.75;5.10;;;16.50;67.80;;;;;;5098465;28;20095;-77
2022/11/05 07:44:13;;;;;;;7.43;6.10;;;16.50;66.60;;;;;;5116697;28;20024;-86
2022/11/05 07:46:40;;;;;;;8.55;5.50;;;16.70;66.90;;;;;;5117109;28;20065;-82
2022/11/05 07:49:06;;;;;;;6.50;5.18;;;17.00;66.80;;;;;;5098874;28;20379;-85
2022/11/05 07:51:32;;;;;;;9.07;5.72;;;16.70;66.00;;;;;;5098589;28;20030;-88
2022/11/05 07:53:57;;;;;;;7.18;5.18;;;16.80;66.50;;;;;;5117205;28;20503;-85
2022/11/05 07:56:23;;;;;;;6.90;5.47;;;16.80;66.40;;;;;;5098693;28;20019;-86
2022/11/05 07:58:49;;;;;;;6.60;4.97;;;16.70;66.80;;;;;;5098424;28;20391;-84
2022/11/05 08:01:14;;;;;;;6.65;5.43;;;16.80;66.70;;;;;;5098324;28;20052;-85
2022/11/05 08:03:40;;;;;;;6.35;5.20;;;16.80;65.70;;;;;;5098165;28;20032;-78
2022/11/05 08:06:06;;;;;;;7.63;5.55;;;16.90;66.30;;;;;;5098311;28;20034;-83
2022/11/05 08:08:31;;;;;;;6.38;4.95;;;17.00;65.90;;;;;;5097953;28;20054;-79
2022/11/05 08:11:08;;;;;;;7.05;5.30;;;17.20;65.70;;;;;;5097802;28;20019;-85
2022/11/05 08:13:34;;;;;;;23.63;19.15;;;17.40;65.20;;;;;;5097811;28;20027;-86
2022/11/05 08:16:01;;;;;;;226.82;157.20;;;16.90;65.10;;;;;;5097607;28;20019;-80
2022/11/05 08:18:31;;;;;;;50.30;44.92;;;16.80;65.80;;;;;;5097344;28;20035;-80
2022/11/05 08:21:02;;;;;;;7.57;5.53;;;16.80;66.20;;;;;;5098027;28;20043;-85
2022/11/05 08:23:29;;;;;;;23.92;21.50;;;16.40;66.40;;;;;;5097639;28;20091;-77
2022/11/05 08:25:55;;;;;;;19.83;17.25;;;16.30;67.00;;;;;;5101199;27;20067;-79
2022/11/05 08:28:22;;;;;;;11.15;9.60;;;16.60;66.90;;;;;;5118128;27;20429;-82
2022/11/05 08:30:50;;;;;;;26.15;21.50;;;16.90;65.70;;;;;;5118230;27;20019;-78
2022/11/05 08:33:16;;;;;;;9.50;7.78;;;16.90;65.20;;;;;;5136255;27;20039;-82
2022/11/05 08:35:42;;;;;;;540.15;438.10;;;16.80;65.10;;;;;;5118228;27;20051;-77
2022/11/05 08:38:12;;;;;;;59.65;45.05;;;17.00;65.00;;;;;;5117459;27;20086;-78
2022/11/05 08:40:38;;;;;;;;;;;17.10;65.20;;;;;;5118146;27;20035;-84
2022/11/05 08:43:06;;;;;;;11.60;8.90;;;16.80;65.70;;;;;;5117604;27;19910;-77
2022/11/05 08:45:32;;;;;;;18.08;14.15;;;17.10;65.20;;;;;;5117070;27;20490;-78
2022/11/05 08:48:09;;;;;;;18.23;13.68;;;17.30;64.80;;;;;;5134892;27;20027;-76
2022/11/05 08:50:36;;;;;;;9.82;8.57;;;17.40;64.70;;;;;;5117179;27;20093;-80
2022/11/05 08:53:02;;;;;;;11.43;9.98;;;17.60;64.90;;;;;;5116854;27;20027;-78
2022/11/05 08:55:28;;;;;;;21.15;18.80;;;17.80;64.20;;;;;;5116726;27;20028;-79
2022/11/05 08:57:55;;;;;;;14.25;12.75;;;17.70;64.30;;;;;;5117265;27;20027;-77
2022/11/05 09:00:21;;;;;;;12.90;11.52;;;18.10;64.20;;;;;;5117522;27;20066;-84
2022/11/05 09:02:46;;;;;;;10.43;7.38;;;18.30;63.90;;;;;;5135741;27;20023;-84
2022/11/05 09:05:12;;;;;;;45.50;41.05;;;18.10;63.20;;;;;;5117381;27;20023;-82
2022/11/05 09:07:37;;;;;;;10.48;5.63;;;18.10;63.60;;;;;;5117060;27;20451;-84
2022/11/05 09:10:04;;;;;;;8.52;4.55;;;18.20;62.60;;;;;;5116923;27;20049;-78
2022/11/05 09:12:29;;;;;;;6.93;5.53;;;18.00;62.20;;;;;;5135077;27;20039;-81
2022/11/05 09:14:55;;;;;;;6.80;5.53;;;17.70;63.00;;;;;;5117010;27;20110;-78
2022/11/05 09:17:21;;;;;;;8.35;4.97;;;17.80;63.70;;;;;;5117108;27;20019;-84
2022/11/05 09:19:47;;;;;;;7.40;6.22;;;18.00;63.10;;;;;;5135508;27;20031;-90
2022/11/05 09:22:13;;;;;;;8.82;7.63;;;17.90;63.60;;;;;;5117100;27;20038;-80
2022/11/05 09:24:40;;;;;;;14.80;13.30;;;17.80;63.40;;;;;;5116399;27;20027;-80
2022/11/05 09:27:09;;;;;;;16.55;14.85;;;17.70;64.00;;;;;;5116826;27;20030;-80
2022/11/05 09:29:35;;;;;;;13.13;11.73;;;17.70;65.20;;;;;;5116826;27;20019;-87
2022/11/05 09:32:01;;;;;;;8.50;6.80;;;17.80;64.20;;;;;;5116180;27;20440;-83
2022/11/05 09:34:27;;;;;;;8.38;5.88;;;18.00;63.50;;;;;;5134405;27;20484;-79
2022/11/05 09:36:52;;;;;;;8.98;7.70;;;17.80;63.50;;;;;;5116186;27;20027;-77
2022/11/05 09:39:18;;;;;;;10.45;8.38;;;17.60;64.70;;;;;;5116337;27;20054;-77
2022/11/05 09:41:45;;;;;;;7.10;5.63;;;17.60;64.80;;;;;;5115790;27;20026;-79
2022/11/05 09:44:17;;;;;;;19.73;16.88;;;17.30;65.20;;;;;;5115313;27;20026;-83
2022/11/05 09:46:47;;;;;;;9.80;7.78;;;17.60;65.60;;;;;;5115709;27;20075;-82
2022/11/05 09:49:24;;;;;;;7.43;5.53;;;18.00;64.90;;;;;;5115974;27;20118;-84
2022/11/05 09:51:52;;;;;;;33.72;27.27;;;18.10;62.90;;;;;;5116470;27;20175;-77
2022/11/05 09:54:22;;;;;;;10.43;7.80;;;17.90;63.40;;;;;;5115925;27;20023;-79
2022/11/05 09:56:48;;;;;;;9.67;8.00;;;17.80;64.10;;;;;;5134414;27;20034;-83
2022/11/05 09:59:26;;;;;;;6.75;5.20;;;18.10;64.00;;;;;;5116234;27;20256;-88
2022/11/05 10:01:58;;;;;;;30.10;26.58;;;18.00;63.20;;;;;;5134076;27;20665;-84
2022/11/05 10:04:26;;;;;;;14.80;10.25;;;18.30;64.30;;;;;;5115936;27;20030;-83
2022/11/05 10:06:59;;;;;;;21.40;17.77;;;18.80;63.50;;;;;;5133101;27;20034;-83
2022/11/05 10:09:44;;;;;;;11.75;8.43;;;19.20;62.80;;;;;;5115887;27;20023;-83
2022/11/05 10:12:24;;;;;;;24.48;20.73;;;19.40;61.20;;;;;;5115890;27;20126;-80
2022/11/05 10:14:56;;;;;;;;;;;19.40;61.30;;;;;;5116400;28;20026;-87
2022/11/05 10:17:24;;;;;;;9.25;6.18;;;19.40;61.90;;;;;;5116073;27;19905;-85
2022/11/05 10:19:50;;;;;;;58.55;50.00;;;19.40;61.20;;;;;;5116391;27;20042;-85
2022/11/05 10:22:18;;;;;;;30.25;25.55;;;19.20;61.70;;;;;;5116203;28;20015;-85
2022/11/05 10:24:51;;;;;;;29.30;24.40;;;19.40;62.00;;;;;;5115853;28;20027;-87
2022/11/05 10:27:19;;;;;;;34.10;26.33;;;19.80;61.10;;;;;;5115975;28;20026;-85
2022/11/05 10:29:47;;;;;;;102.03;82.50;;;20.00;61.20;;;;;;5116273;28;20024;-87
2022/11/05 10:32:37;;;;;;;56.70;45.83;;;20.10;60.50;;;;;;5115864;28;20039;-87
2022/11/05 10:35:05;;;;;;;85.35;76.22;;;20.40;60.20;;;;;;5115425;28;20049;-84
2022/11/05 10:37:32;;;;;;;19.75;17.65;;;20.50;60.20;;;;;;5116150;28;20117;-85
2022/11/05 10:39:58;;;;;;;15.15;13.57;;;20.50;59.00;;;;;;5115697;28;20383;-85
2022/11/05 10:42:42;;;;;;;25.42;22.73;;;20.30;60.30;;;;;;5116059;28;20035;-83
2022/11/05 10:45:08;;;;;;;12.27;9.32;;;20.40;59.80;;;;;;5134256;28;20015;-86
2022/11/05 10:47:49;;;;;;;21.10;18.17;;;20.40;60.40;;;;;;5116112;28;20035;-88
2022/11/05 10:50:16;;;;;;;;;;;20.50;60.00;;;;;;5116518;28;20160;-93
2022/11/05 10:52:51;;;;;;;12.43;10.10;;;20.70;59.80;;;;;;5116007;28;20382;-88
2022/11/05 10:55:22;;;;;;;8.77;7.28;;;20.60;60.00;;;;;;5115664;28;20023;-91
2022/11/05 10:57:50;;;;;;;12.10;8.88;;;20.70;58.90;;;;;;5115910;28;20031;-84
2022/11/05 11:00:20;;;;;;;9.43;7.07;;;20.50;59.30;;;;;;5115697;28;20400;-78
2022/11/05 11:02:58;;;;;;;7.70;5.68;;;20.40;59.50;;;;;;5115277;28;20031;-90
2022/11/05 11:05:31;;;;;;;8.32;6.10;;;20.60;59.80;;;;;;5133728;28;20470;-85
2022/11/05 11:08:12;;;;;;;8.32;6.40;;;20.70;59.20;;;;;;5115131;28;20027;-80
2022/11/05 11:10:48;;;;;;;6.15;4.90;;;20.50;59.20;;;;;;5115171;28;20024;-82
2022/11/05 11:13:29;;;;;;;6.05;4.82;;;20.40;59.60;;;;;;5115048;28;20039;-78
2022/11/05 11:16:13;;;;;;;7.78;5.95;;;20.40;59.80;;;;;;5114874;28;20026;-78
2022/11/05 11:18:42;;;;;;;6.97;5.43;;;20.40;59.60;;;;;;5119244;27;20049;-79
2022/11/05 11:21:14;;;;;;;8.52;5.28;;;20.50;60.10;;;;;;5119045;27;20019;-81
2022/11/05 11:23:42;;;;;;;6.40;4.45;;;20.60;60.00;;;;;;5118885;27;20541;-85
2022/11/05 11:26:10;;;;;;;6.00;4.30;;;20.60;60.00;;;;;;5137541;27;20015;-84
2022/11/05 11:28:44;;;;;;;7.13;4.80;;;20.80;59.10;;;;;;5118742;27;20042;-85
2022/11/05 11:31:16;;;;;;;7.07;4.25;;;20.90;58.80;;;;;;5118470;27;20027;-91
2022/11/05 11:33:46;;;;;;;5.47;4.40;;;21.20;59.20;;;;;;5137295;27;20060;-86
2022/11/05 11:36:15;;;;;;;4.57;3.67;;;21.00;58.70;;;;;;5118546;27;20023;-79
2022/11/05 11:38:41;;;;;;;5.22;3.83;;;21.20;58.70;;;;;;5118897;27;20275;-78
2022/11/05 11:41:32;;;;;;;5.25;3.92;;;21.20;58.50;;;;;;5137058;27;20026;-84
2022/11/05 11:44:18;;;;;;;4.60;3.88;;;21.30;58.90;;;;;;5118537;27;20030;-79
2022/11/05 11:46:48;;;;;;;5.53;3.72;;;21.40;58.70;;;;;;5118329;27;20025;-79
2022/11/05 11:49:57;;;;;;;5.75;3.60;;;21.40;58.20;;;;;;5118396;27;20041;-79
2022/11/05 11:52:27;;;;;;;4.72;3.10;;;21.00;58.30;;;;;;5017285;28;20052;-79
2022/11/05 11:55:26;;;;;;;3.97;3.10;;;20.80;58.50;;;;;;5033478;28;20080;-87
2022/11/05 11:58:03;;;;;;;5.57;3.50;;;20.40;59.00;;;;;;5033693;28;20120;-88
2022/11/05 12:00:34;;;;;;;4.30;3.08;;;20.20;60.50;;;;;;5016627;28;20052;-80
2022/11/05 12:03:24;;;;;;;4.65;3.67;;;19.90;59.80;;;;;;5033126;28;20041;-79
2022/11/05 12:06:23;;;;;;;4.57;3.00;;;19.60;61.50;;;;;;5016433;28;20037;-78
2022/11/05 12:09:02;;;;;;;4.30;3.03;;;19.60;61.20;;;;;;5033601;28;20274;-86
2022/11/05 12:11:56;;;;;;;4.22;3.33;;;19.70;61.20;;;;;;5016825;28;20041;-84
2022/11/05 12:14:33;;;;;;;4.35;3.20;;;19.90;60.50;;;;;;5034031;28;20378;-79
2022/11/05 12:17:13;;;;;;;4.75;3.50;;;20.00;60.30;;;;;;5033208;28;20041;-84
2022/11/05 12:19:44;;;;;;;4.20;3.03;;;20.00;60.20;;;;;;5033226;28;20029;-85
2022/11/05 12:22:40;;;;;;;4.78;3.40;;;20.00;60.00;;;;;;5047361;27;20032;-84
2022/11/05 12:25:36;;;;;;;4.18;3.05;;;19.90;59.70;;;;;;5136364;27;20098;-81
2022/11/05 12:28:12;;;;;;;5.40;3.20;;;19.80;60.60;;;;;;5117107;28;20167;-89
2022/11/05 12:30:50;;;;;;;3.97;2.90;;;19.80;61.00;;;;;;5135687;27;20030;-80
2022/11/05 12:33:24;;;;;;;4.25;2.97;;;20.20;59.90;;;;;;5117028;27;20043;-79
2022/11/05 12:36:04;;;;;;;5.93;4.32;;;20.30;60.00;;;;;;5117029;27;20426;-76
2022/11/05 12:38:36;;;;;;;6.45;3.83;;;20.70;60.00;;;;;;5135452;27;20443;-80
2022/11/05 12:41:31;;;;;;;5.70;4.00;;;21.10;59.30;;;;;;5135469;27;20092;-79
2022/11/05 12:44:35;;;;;;;4.10;2.70;;;21.00;58.50;;;;;;5111996;27;20429;-78
2022/11/05 12:47:15;;;;;;;5.88;3.10;;;20.60;59.00;;;;;;5117297;27;20035;-82
2022/11/05 12:49:58;;;;;;;5.20;2.90;;;20.60;59.20;;;;;;5135739;27;20376;-83
2022/11/05 12:53:01;;;;;;;4.07;2.80;;;20.50;59.20;;;;;;5117172;27;20380;-82
2022/11/05 12:55:35;;;;;;;4.30;3.10;;;20.50;59.60;;;;;;5117432;27;20106;-85
2022/11/05 12:58:17;;;;;;;5.80;4.15;;;20.20;59.80;;;;;;5117605;27;20031;-80
2022/11/05 13:00:49;;;;;;;11.45;8.95;;;20.10;60.10;;;;;;5116911;27;20530;-87
2022/11/05 13:03:27;;;;;;;4.40;2.88;;;20.10;60.30;;;;;;5135471;27;20031;-81
2022/11/05 13:06:06;;;;;;;3.88;2.67;;;19.90;60.40;;;;;;5116859;27;20029;-83
2022/11/05 13:08:58;;;;;;;3.85;2.42;;;19.70;60.60;;;;;;5116806;27;20027;-81
2022/11/05 13:11:33;;;;;;;4.65;3.30;;;19.80;60.50;;;;;;5105883;27;20118;-88
2022/11/05 13:14:18;;;;;;;5.15;3.00;;;19.90;60.60;;;;;;5117023;27;20045;-80
2022/11/05 13:16:52;;;;;;;7.90;4.85;;;20.00;60.50;;;;;;5116771;27;20019;-86
2022/11/05 13:19:23;;;;;;;4.05;2.60;;;20.30;60.50;;;;;;5116654;27;20038;-78
2022/11/05 13:22:36;;;;;;;3.65;2.63;;;20.50;59.90;;;;;;5116604;27;20069;-78
2022/11/05 13:25:24;;;;;;;4.40;3.30;;;20.70;59.10;;;;;;5102275;27;20071;-89
2022/11/05 13:28:16;;;;;;;6.22;3.38;;;20.60;59.30;;;;;;5116479;27;20027;-78
2022/11/05 13:30:51;;;;;;;3.92;2.75;;;20.90;59.20;;;;;;5116516;27;20551;-81
2022/11/05 13:33:33;;;;;;;3.95;2.65;;;21.00;58.70;;;;;;5116896;27;20035;-85
2022/11/05 13:39:10;;;;;;;3.20;2.10;;;21.00;58.20;;;;;;5135453;27;20144;-90
2022/11/05 13:41:57;;;;;;;4.72;2.90;;;20.50;58.80;;;;;;5134823;27;20025;-86
2022/11/05 13:44:57;;;;;;;4.68;2.63;;;20.30;59.60;;;;;;5116727;27;20359;-85
2022/11/05 13:47:50;;;;;;;3.72;2.45;;;20.40;59.70;;;;;;5116557;27;20046;-87
2022/11/05 13:50:21;;;;;;;5.18;2.75;;;20.20;59.80;;;;;;5116531;27;20127;-79